TFM - Tactical Decision Aid (Experimental) INFO Settings
ID: Runway Winds: CIG/VIS Threshold: METAR Board: Map:

KCSV - Crossville Mem

Updated at: 2301 UTC 20 Feb 2018
Latest TAF at: 2036 UTC 20 Feb 2018

TAF Board

Time2253Z20/23Z21/00Z21/01Z21/02Z21/03Z21/04Z21/05Z21/06Z21/07Z21/08Z21/09Z21/10Z21/11Z
TypeOBSPRVLPRVLPRVLPRVLPRVLPRVLPRVLPRVLPRVLPRVLPRVLPRVLPRVL
VIS10>6>6>6>6>6>6>6>6>6>6>6>6>6
CIG6050505050505015151515151515
CoverOVCBKNBKNBKNBKNBKNBKNBKNBKNBKNBKNBKNBKNBKN
FltCatVFRVFRVFRVFRVFRVFRVFRMVFRMVFRMVFRMVFRMVFRMVFRMVFR
WX----------------------------
WDir180180180180180180180170170170170170170170
WSpd710101010101012121212121212
WGst--16161616161618181818181818
TAF
KCSV 202036Z 2021/2118 18010G16KT P6SM SCT027 BKN050
  FM210500 17012G18KT P6SM BKN015
  FM211600 21011G17KT 6SM -SHRA OVC015


METAR
KCSV 202253Z AUTO 18007KT 10SM OVC060 19/14 A3030 RMK AO2 SLP249 T01940144
KCSV 202153Z AUTO 17007KT 130V200 10SM OVC060 19/14 A3029 RMK AO2 SLP244 T01940144

TAF/METAR Board Legend

Potential Impact
  None Marginal Slight Moderate High
Visibility (sm) >5 3≤X≤5 2≤X<3 0.75≤X<2 <0.75
Ceiling (100 ft) >30 10≤X≤30 6≤X<10 2≤X<6 <2
Wind Speed (kt) <10 10≤X<20 20≤X<30 ≥30
Wind Gust (kt) <15 15≤X<25 25≤X<35 ≥35
Weather No Wx Reported VCTS -TS,-FZRA TS,FZRA +TS,+FZRA





Page loaded:  23:01 UTC  |   03:01 PM Pacific  |   04:01 PM Mountain  |   05:01 PM Central  |   06:01 PM Eastern